sensor_id;sensor_type;location;lat;lon;timestamp;P1;durP1;ratioP1;P2;durP2;ratioP2
60016;SDS011;45869;52.698;6.210;2022-10-01T00:02:08;7.07;;;5.90;;
60016;SDS011;45869;52.698;6.210;2022-10-01T00:04:34;7.88;;;6.18;;
60016;SDS011;45869;52.698;6.210;2022-10-01T00:07:01;8.32;;;6.45;;
60016;SDS011;45869;52.698;6.210;2022-10-01T00:09:29;8.38;;;6.60;;
60016;SDS011;45869;52.698;6.210;2022-10-01T00:11:55;7.93;;;6.65;;
60016;SDS011;45869;52.698;6.210;2022-10-01T00:14:23;8.18;;;6.60;;
60016;SDS011;45869;52.698;6.210;2022-10-01T00:16:49;7.32;;;6.55;;
60016;SDS011;45869;52.698;6.210;2022-10-01T00:19:15;8.00;;;6.63;;
60016;SDS011;45869;52.698;6.210;2022-10-01T00:21:42;8.15;;;6.78;;
60016;SDS011;45869;52.698;6.210;2022-10-01T00:24:10;9.50;;;6.43;;
60016;SDS011;45869;52.698;6.210;2022-10-01T00:26:42;8.80;;;6.60;;
60016;SDS011;45869;52.698;6.210;2022-10-01T00:29:14;9.30;;;7.47;;
60016;SDS011;45869;52.698;6.210;2022-10-01T00:31:40;8.07;;;6.95;;
60016;SDS011;45869;52.698;6.210;2022-10-01T00:34:06;9.63;;;7.28;;
60016;SDS011;45869;52.698;6.210;2022-10-01T00:36:32;9.07;;;7.45;;
60016;SDS011;45869;52.698;6.210;2022-10-01T00:38:59;8.50;;;7.60;;
60016;SDS011;45869;52.698;6.210;2022-10-01T00:41:25;8.98;;;7.28;;
60016;SDS011;45869;52.698;6.210;2022-10-01T00:43:54;9.63;;;7.82;;
60016;SDS011;45869;52.698;6.210;2022-10-01T00:46:26;9.15;;;7.90;;
60016;SDS011;45869;52.698;6.210;2022-10-01T00:48:54;8.88;;;7.55;;
60016;SDS011;45869;52.698;6.210;2022-10-01T00:51:25;11.13;;;7.88;;
60016;SDS011;45869;52.698;6.210;2022-10-01T00:53:53;9.02;;;7.75;;
60016;SDS011;45869;52.698;6.210;2022-10-01T00:56:21;8.85;;;7.78;;
60016;SDS011;45869;52.698;6.210;2022-10-01T00:58:47;9.60;;;7.82;;
60016;SDS011;45869;52.698;6.210;2022-10-01T01:01:18;7.43;;;6.72;;
60016;SDS011;45869;52.698;6.210;2022-10-01T01:03:47;8.52;;;7.38;;
60016;SDS011;45869;52.698;6.210;2022-10-01T01:06:16;9.63;;;7.85;;
60016;SDS011;45869;52.698;6.210;2022-10-01T01:08:42;9.00;;;8.10;;
60016;SDS011;45869;52.698;6.210;2022-10-01T01:16:35;9.82;;;7.82;;
60016;SDS011;45869;52.698;6.210;2022-10-01T01:19:12;9.52;;;8.32;;
60016;SDS011;45869;52.698;6.210;2022-10-01T01:21:48;9.98;;;8.15;;
60016;SDS011;45869;52.698;6.210;2022-10-01T01:26:44;8.52;;;7.45;;
60016;SDS011;45869;52.698;6.210;2022-10-01T01:29:23;10.05;;;7.22;;
60016;SDS011;45869;52.698;6.210;2022-10-01T01:31:50;7.93;;;7.10;;
60016;SDS011;45869;52.698;6.210;2022-10-01T01:34:27;10.07;;;7.82;;
60016;SDS011;45869;52.698;6.210;2022-10-01T01:36:55;9.52;;;7.28;;
60016;SDS011;45869;52.698;6.210;2022-10-01T01:39:24;10.25;;;7.35;;
60016;SDS011;45869;52.698;6.210;2022-10-01T01:41:51;8.70;;;7.72;;
60016;SDS011;45869;52.698;6.210;2022-10-01T01:44:21;7.65;;;6.88;;
60016;SDS011;45869;52.698;6.210;2022-10-01T01:46:48;8.23;;;7.32;;
60016;SDS011;45869;52.698;6.210;2022-10-01T01:49:16;8.80;;;7.38;;
60016;SDS011;45869;52.698;6.210;2022-10-01T01:54:16;8.15;;;6.85;;
60016;SDS011;45869;52.698;6.210;2022-10-01T01:56:42;10.07;;;7.22;;
60016;SDS011;45869;52.698;6.210;2022-10-01T01:59:08;8.05;;;7.07;;
60016;SDS011;45869;52.698;6.210;2022-10-01T02:01:41;8.98;;;7.38;;
60016;SDS011;45869;52.698;6.210;2022-10-01T02:04:08;7.80;;;6.78;;
60016;SDS011;45869;52.698;6.210;2022-10-01T02:09:19;7.20;;;6.40;;
60016;SDS011;45869;52.698;6.210;2022-10-01T02:14:44;7.30;;;6.35;;
60016;SDS011;45869;52.698;6.210;2022-10-01T02:17:20;7.50;;;6.50;;
60016;SDS011;45869;52.698;6.210;2022-10-01T02:19:52;7.53;;;6.10;;
60016;SDS011;45869;52.698;6.210;2022-10-01T02:22:25;6.47;;;5.53;;
60016;SDS011;45869;52.698;6.210;2022-10-01T02:24:57;6.60;;;5.90;;
60016;SDS011;45869;52.698;6.210;2022-10-01T02:27:26;6.35;;;5.43;;
60016;SDS011;45869;52.698;6.210;2022-10-01T02:30:04;6.63;;;5.55;;
60016;SDS011;45869;52.698;6.210;2022-10-01T02:32:34;5.90;;;5.30;;
60016;SDS011;45869;52.698;6.210;2022-10-01T02:35:01;6.05;;;4.97;;
60016;SDS011;45869;52.698;6.210;2022-10-01T02:37:28;5.55;;;4.70;;
60016;SDS011;45869;52.698;6.210;2022-10-01T02:39:54;6.78;;;5.50;;
60016;SDS011;45869;52.698;6.210;2022-10-01T02:42:21;6.88;;;5.40;;
60016;SDS011;45869;52.698;6.210;2022-10-01T02:44:48;6.78;;;5.38;;
60016;SDS011;45869;52.698;6.210;2022-10-01T02:47:20;5.88;;;4.60;;
60016;SDS011;45869;52.698;6.210;2022-10-01T02:49:48;5.45;;;4.60;;
60016;SDS011;45869;52.698;6.210;2022-10-01T02:57:34;6.38;;;4.40;;
60016;SDS011;45869;52.698;6.210;2022-10-01T03:00:04;5.00;;;4.18;;
60016;SDS011;45869;52.698;6.210;2022-10-01T03:02:31;5.82;;;4.40;;
60016;SDS011;45869;52.698;6.210;2022-10-01T03:05:00;4.07;;;3.30;;
60016;SDS011;45869;52.698;6.210;2022-10-01T03:07:30;3.97;;;3.45;;
60016;SDS011;45869;52.698;6.210;2022-10-01T03:09:58;5.43;;;3.70;;
60016;SDS011;45869;52.698;6.210;2022-10-01T03:12:24;4.95;;;3.58;;
60016;SDS011;45869;52.698;6.210;2022-10-01T03:14:50;4.88;;;3.75;;
60016;SDS011;45869;52.698;6.210;2022-10-01T03:17:17;4.63;;;3.60;;
60016;SDS011;45869;52.698;6.210;2022-10-01T03:19:44;4.45;;;3.45;;
60016;SDS011;45869;52.698;6.210;2022-10-01T03:22:11;4.20;;;3.60;;
60016;SDS011;45869;52.698;6.210;2022-10-01T03:24:37;4.85;;;3.70;;
60016;SDS011;45869;52.698;6.210;2022-10-01T03:27:03;3.95;;;3.42;;
60016;SDS011;45869;52.698;6.210;2022-10-01T03:29:31;4.78;;;3.97;;
60016;SDS011;45869;52.698;6.210;2022-10-01T03:31:57;3.97;;;3.47;;
60016;SDS011;45869;52.698;6.210;2022-10-01T03:34:33;5.05;;;3.60;;
60016;SDS011;45869;52.698;6.210;2022-10-01T03:36:58;4.18;;;3.50;;
60016;SDS011;45869;52.698;6.210;2022-10-01T03:39:24;4.35;;;3.60;;
60016;SDS011;45869;52.698;6.210;2022-10-01T03:41:54;4.38;;;3.45;;
60016;SDS011;45869;52.698;6.210;2022-10-01T03:44:20;4.25;;;3.33;;
60016;SDS011;45869;52.698;6.210;2022-10-01T03:46:46;4.78;;;3.35;;
60016;SDS011;45869;52.698;6.210;2022-10-01T03:49:12;5.35;;;3.53;;
60016;SDS011;45869;52.698;6.210;2022-10-01T03:51:38;3.67;;;2.80;;
60016;SDS011;45869;52.698;6.210;2022-10-01T03:54:05;3.78;;;3.35;;
60016;SDS011;45869;52.698;6.210;2022-10-01T03:56:31;4.43;;;2.78;;
60016;SDS011;45869;52.698;6.210;2022-10-01T03:59:00;4.90;;;3.22;;
60016;SDS011;45869;52.698;6.210;2022-10-01T04:01:26;3.53;;;2.58;;
60016;SDS011;45869;52.698;6.210;2022-10-01T04:03:53;2.50;;;2.03;;
60016;SDS011;45869;52.698;6.210;2022-10-01T04:06:19;3.65;;;2.33;;
60016;SDS011;45869;52.698;6.210;2022-10-01T04:08:45;3.20;;;2.33;;
60016;SDS011;45869;52.698;6.210;2022-10-01T04:11:11;3.92;;;1.80;;
60016;SDS011;45869;52.698;6.210;2022-10-01T04:13:43;3.38;;;1.80;;
60016;SDS011;45869;52.698;6.210;2022-10-01T04:16:12;2.33;;;1.60;;
60016;SDS011;45869;52.698;6.210;2022-10-01T04:18:39;5.15;;;1.75;;
60016;SDS011;45869;52.698;6.210;2022-10-01T04:21:08;2.95;;;1.52;;
60016;SDS011;45869;52.698;6.210;2022-10-01T04:23:36;1.88;;;1.48;;
60016;SDS011;45869;52.698;6.210;2022-10-01T04:26:02;1.80;;;1.30;;
60016;SDS011;45869;52.698;6.210;2022-10-01T04:28:29;2.67;;;1.58;;
60016;SDS011;45869;52.698;6.210;2022-10-01T04:30:55;2.80;;;1.52;;
60016;SDS011;45869;52.698;6.210;2022-10-01T04:33:40;3.35;;;1.50;;
60016;SDS011;45869;52.698;6.210;2022-10-01T04:36:09;1.75;;;1.35;;
60016;SDS011;45869;52.698;6.210;2022-10-01T04:38:41;2.20;;;1.40;;
60016;SDS011;45869;52.698;6.210;2022-10-01T04:41:07;2.97;;;1.30;;
60016;SDS011;45869;52.698;6.210;2022-10-01T04:43:33;2.22;;;1.20;;
60016;SDS011;45869;52.698;6.210;2022-10-01T04:45:59;2.47;;;1.20;;
60016;SDS011;45869;52.698;6.210;2022-10-01T04:48:25;2.20;;;1.60;;
60016;SDS011;45869;52.698;6.210;2022-10-01T04:50:51;2.88;;;1.65;;
60016;SDS011;45869;52.698;6.210;2022-10-01T04:53:17;2.90;;;1.98;;
60016;SDS011;45869;52.698;6.210;2022-10-01T04:55:43;3.03;;;2.00;;
60016;SDS011;45869;52.698;6.210;2022-10-01T04:58:10;3.72;;;1.85;;
60016;SDS011;45869;52.698;6.210;2022-10-01T05:00:36;2.30;;;1.80;;
60016;SDS011;45869;52.698;6.210;2022-10-01T05:03:02;2.60;;;2.00;;
60016;SDS011;45869;52.698;6.210;2022-10-01T05:05:28;3.55;;;2.38;;
60016;SDS011;45869;52.698;6.210;2022-10-01T05:07:57;3.00;;;2.15;;
60016;SDS011;45869;52.698;6.210;2022-10-01T05:10:23;3.53;;;2.45;;
60016;SDS011;45869;52.698;6.210;2022-10-01T05:12:50;4.43;;;2.97;;
60016;SDS011;45869;52.698;6.210;2022-10-01T05:15:16;3.75;;;3.20;;
60016;SDS011;45869;52.698;6.210;2022-10-01T05:17:45;4.45;;;2.97;;
60016;SDS011;45869;52.698;6.210;2022-10-01T05:20:15;4.68;;;4.00;;
60016;SDS011;45869;52.698;6.210;2022-10-01T05:22:42;5.22;;;3.40;;
60016;SDS011;45869;52.698;6.210;2022-10-01T05:25:08;3.55;;;3.25;;
60016;SDS011;45869;52.698;6.210;2022-10-01T05:27:34;3.42;;;3.13;;
60016;SDS011;45869;52.698;6.210;2022-10-01T05:30:09;5.20;;;4.15;;
60016;SDS011;45869;52.698;6.210;2022-10-01T05:32:36;4.00;;;3.60;;
60016;SDS011;45869;52.698;6.210;2022-10-01T05:35:03;4.55;;;3.58;;
60016;SDS011;45869;52.698;6.210;2022-10-01T05:37:29;4.80;;;3.30;;
60016;SDS011;45869;52.698;6.210;2022-10-01T05:39:55;4.32;;;3.80;;
60016;SDS011;45869;52.698;6.210;2022-10-01T05:42:21;4.95;;;3.88;;
60016;SDS011;45869;52.698;6.210;2022-10-01T05:44:50;7.38;;;4.70;;
60016;SDS011;45869;52.698;6.210;2022-10-01T05:47:16;5.20;;;4.15;;
60016;SDS011;45869;52.698;6.210;2022-10-01T05:49:45;5.35;;;3.92;;
60016;SDS011;45869;52.698;6.210;2022-10-01T05:52:17;5.22;;;4.72;;
60016;SDS011;45869;52.698;6.210;2022-10-01T05:54:43;6.43;;;4.43;;
60016;SDS011;45869;52.698;6.210;2022-10-01T05:57:09;5.20;;;4.38;;
60016;SDS011;45869;52.698;6.210;2022-10-01T05:59:35;5.38;;;4.85;;
60016;SDS011;45869;52.698;6.210;2022-10-01T06:02:08;7.05;;;5.25;;
60016;SDS011;45869;52.698;6.210;2022-10-01T06:04:37;6.20;;;5.60;;
60016;SDS011;45869;52.698;6.210;2022-10-01T06:07:03;6.68;;;6.07;;
60016;SDS011;45869;52.698;6.210;2022-10-01T06:09:29;6.30;;;5.15;;
60016;SDS011;45869;52.698;6.210;2022-10-01T06:11:54;8.30;;;5.60;;
60016;SDS011;45869;52.698;6.210;2022-10-01T06:14:21;7.15;;;6.22;;
60016;SDS011;45869;52.698;6.210;2022-10-01T06:16:47;8.73;;;5.43;;
60016;SDS011;45869;52.698;6.210;2022-10-01T06:19:12;7.57;;;6.78;;
60016;SDS011;45869;52.698;6.210;2022-10-01T06:21:41;5.72;;;5.22;;
60016;SDS011;45869;52.698;6.210;2022-10-01T06:24:07;7.10;;;6.10;;
60016;SDS011;45869;52.698;6.210;2022-10-01T06:26:45;6.20;;;5.32;;
60016;SDS011;45869;52.698;6.210;2022-10-01T06:29:12;7.22;;;5.32;;
60016;SDS011;45869;52.698;6.210;2022-10-01T06:31:38;5.90;;;4.82;;
60016;SDS011;45869;52.698;6.210;2022-10-01T06:34:05;7.15;;;4.72;;
60016;SDS011;45869;52.698;6.210;2022-10-01T06:36:33;8.63;;;6.40;;
60016;SDS011;45869;52.698;6.210;2022-10-01T06:38:59;6.53;;;5.88;;
60016;SDS011;45869;52.698;6.210;2022-10-01T06:41:25;5.70;;;5.10;;
60016;SDS011;45869;52.698;6.210;2022-10-01T06:43:54;6.38;;;5.75;;
60016;SDS011;45869;52.698;6.210;2022-10-01T06:46:20;8.38;;;5.75;;
60016;SDS011;45869;52.698;6.210;2022-10-01T06:48:46;7.30;;;5.68;;
60016;SDS011;45869;52.698;6.210;2022-10-01T06:51:12;7.68;;;5.50;;
60016;SDS011;45869;52.698;6.210;2022-10-01T06:53:38;8.50;;;5.55;;
60016;SDS011;45869;52.698;6.210;2022-10-01T06:56:05;9.05;;;5.90;;
60016;SDS011;45869;52.698;6.210;2022-10-01T06:58:31;8.23;;;5.10;;
60016;SDS011;45869;52.698;6.210;2022-10-01T07:01:01;8.20;;;6.22;;
60016;SDS011;45869;52.698;6.210;2022-10-01T07:03:27;7.93;;;5.97;;
60016;SDS011;45869;52.698;6.210;2022-10-01T07:05:59;7.00;;;4.95;;
60016;SDS011;45869;52.698;6.210;2022-10-01T07:08:28;6.72;;;6.10;;
60016;SDS011;45869;52.698;6.210;2022-10-01T07:10:58;9.23;;;6.10;;
60016;SDS011;45869;52.698;6.210;2022-10-01T07:13:24;7.32;;;5.15;;
60016;SDS011;45869;52.698;6.210;2022-10-01T07:15:50;9.15;;;6.10;;
60016;SDS011;45869;52.698;6.210;2022-10-01T07:18:16;8.30;;;5.53;;
60016;SDS011;45869;52.698;6.210;2022-10-01T07:20:42;10.00;;;5.82;;
60016;SDS011;45869;52.698;6.210;2022-10-01T07:23:12;7.65;;;5.78;;
60016;SDS011;45869;52.698;6.210;2022-10-01T07:25:39;6.93;;;5.30;;
60016;SDS011;45869;52.698;6.210;2022-10-01T07:28:06;7.80;;;5.53;;
60016;SDS011;45869;52.698;6.210;2022-10-01T07:30:32;7.10;;;4.50;;
60016;SDS011;45869;52.698;6.210;2022-10-01T07:32:58;10.35;;;5.25;;
60016;SDS011;45869;52.698;6.210;2022-10-01T07:35:24;8.70;;;5.80;;
60016;SDS011;45869;52.698;6.210;2022-10-01T07:37:50;7.68;;;4.85;;
60016;SDS011;45869;52.698;6.210;2022-10-01T07:40:19;9.63;;;4.20;;
60016;SDS011;45869;52.698;6.210;2022-10-01T07:42:54;11.27;;;4.20;;
60016;SDS011;45869;52.698;6.210;2022-10-01T07:45:21;8.27;;;3.97;;
60016;SDS011;45869;52.698;6.210;2022-10-01T07:47:53;8.95;;;3.75;;
60016;SDS011;45869;52.698;6.210;2022-10-01T07:50:20;8.07;;;3.47;;
60016;SDS011;45869;52.698;6.210;2022-10-01T07:52:50;9.50;;;3.70;;
60016;SDS011;45869;52.698;6.210;2022-10-01T07:55:16;9.00;;;3.65;;
60016;SDS011;45869;52.698;6.210;2022-10-01T07:57:42;7.10;;;3.60;;
60016;SDS011;45869;52.698;6.210;2022-10-01T08:00:08;7.60;;;3.30;;
60016;SDS011;45869;52.698;6.210;2022-10-01T08:02:35;10.73;;;3.47;;
60016;SDS011;45869;52.698;6.210;2022-10-01T08:05:01;8.48;;;3.00;;
60016;SDS011;45869;52.698;6.210;2022-10-01T08:07:42;8.23;;;2.40;;
60016;SDS011;45869;52.698;6.210;2022-10-01T08:10:09;10.95;;;2.88;;
60016;SDS011;45869;52.698;6.210;2022-10-01T08:12:35;6.82;;;3.05;;
60016;SDS011;45869;52.698;6.210;2022-10-01T08:15:01;7.53;;;2.15;;
60016;SDS011;45869;52.698;6.210;2022-10-01T08:17:27;7.25;;;2.28;;
60016;SDS011;45869;52.698;6.210;2022-10-01T08:19:53;6.38;;;2.40;;
60016;SDS011;45869;52.698;6.210;2022-10-01T08:22:19;6.25;;;2.40;;
60016;SDS011;45869;52.698;6.210;2022-10-01T08:24:45;7.85;;;2.13;;
60016;SDS011;45869;52.698;6.210;2022-10-01T08:27:11;11.57;;;2.70;;
60016;SDS011;45869;52.698;6.210;2022-10-01T08:29:37;10.55;;;2.50;;
60016;SDS011;45869;52.698;6.210;2022-10-01T08:32:07;9.88;;;2.45;;
60016;SDS011;45869;52.698;6.210;2022-10-01T08:34:33;9.15;;;2.33;;
60016;SDS011;45869;52.698;6.210;2022-10-01T08:36:59;7.88;;;2.15;;
60016;SDS011;45869;52.698;6.210;2022-10-01T08:39:25;8.05;;;1.90;;
60016;SDS011;45869;52.698;6.210;2022-10-01T08:44:35;7.78;;;1.50;;
60016;SDS011;45869;52.698;6.210;2022-10-01T08:47:10;5.28;;;1.20;;
60016;SDS011;45869;52.698;6.210;2022-10-01T08:49:39;6.22;;;1.00;;
60016;SDS011;45869;52.698;6.210;2022-10-01T08:54:42;7.63;;;1.33;;
60016;SDS011;45869;52.698;6.210;2022-10-01T08:57:11;8.40;;;1.00;;
60016;SDS011;45869;52.698;6.210;2022-10-01T08:59:42;3.90;;;0.88;;
60016;SDS011;45869;52.698;6.210;2022-10-01T09:02:11;4.82;;;0.70;;
60016;SDS011;45869;52.698;6.210;2022-10-01T09:04:43;5.88;;;0.70;;
60016;SDS011;45869;52.698;6.210;2022-10-01T09:07:15;5.15;;;0.73;;
60016;SDS011;45869;52.698;6.210;2022-10-01T09:09:50;4.22;;;0.50;;
60016;SDS011;45869;52.698;6.210;2022-10-01T09:17:47;2.05;;;0.38;;
60016;SDS011;45869;52.698;6.210;2022-10-01T09:20:20;4.63;;;0.45;;
60016;SDS011;45869;52.698;6.210;2022-10-01T09:25:23;3.05;;;0.40;;
60016;SDS011;45869;52.698;6.210;2022-10-01T09:28:25;3.30;;;0.47;;
60016;SDS011;45869;52.698;6.210;2022-10-01T09:31:43;3.08;;;0.47;;
60016;SDS011;45869;52.698;6.210;2022-10-01T09:33:42;5.95;;;0.70;;
60016;SDS011;45869;52.698;6.210;2022-10-01T09:36:18;5.25;;;1.00;;
60016;SDS011;45869;52.698;6.210;2022-10-01T09:38:47;4.07;;;0.60;;
60016;SDS011;45869;52.698;6.210;2022-10-01T09:41:17;5.43;;;0.85;;
60016;SDS011;45869;52.698;6.210;2022-10-01T09:43:43;9.05;;;1.00;;
60016;SDS011;45869;52.698;6.210;2022-10-01T09:46:14;7.35;;;0.90;;
60016;SDS011;45869;52.698;6.210;2022-10-01T09:48:48;6.43;;;1.00;;
60016;SDS011;45869;52.698;6.210;2022-10-01T09:51:18;5.82;;;0.98;;
60016;SDS011;45869;52.698;6.210;2022-10-01T09:54:33;4.70;;;1.00;;
60016;SDS011;45869;52.698;6.210;2022-10-01T09:56:44;7.40;;;1.05;;
60016;SDS011;45869;52.698;6.210;2022-10-01T09:59:28;6.53;;;1.35;;
60016;SDS011;45869;52.698;6.210;2022-10-01T10:01:56;8.27;;;1.63;;
60016;SDS011;45869;52.698;6.210;2022-10-01T10:04:26;6.32;;;1.13;;
60016;SDS011;45869;52.698;6.210;2022-10-01T10:07:04;7.35;;;1.63;;
60016;SDS011;45869;52.698;6.210;2022-10-01T10:09:31;7.10;;;1.52;;
60016;SDS011;45869;52.698;6.210;2022-10-01T10:11:58;8.88;;;1.40;;
60016;SDS011;45869;52.698;6.210;2022-10-01T10:14:28;6.60;;;1.52;;
60016;SDS011;45869;52.698;6.210;2022-10-01T10:17:05;9.27;;;1.88;;
60016;SDS011;45869;52.698;6.210;2022-10-01T10:19:31;7.95;;;1.23;;
60016;SDS011;45869;52.698;6.210;2022-10-01T10:22:08;10.65;;;1.33;;
60016;SDS011;45869;52.698;6.210;2022-10-01T10:24:35;9.07;;;1.40;;
60016;SDS011;45869;52.698;6.210;2022-10-01T10:27:18;12.02;;;1.75;;
60016;SDS011;45869;52.698;6.210;2022-10-01T10:29:45;9.65;;;1.90;;
60016;SDS011;45869;52.698;6.210;2022-10-01T10:32:18;10.07;;;1.70;;
60016;SDS011;45869;52.698;6.210;2022-10-01T10:34:47;10.02;;;1.85;;
60016;SDS011;45869;52.698;6.210;2022-10-01T10:37:13;9.50;;;1.48;;
60016;SDS011;45869;52.698;6.210;2022-10-01T10:39:41;7.30;;;1.48;;
60016;SDS011;45869;52.698;6.210;2022-10-01T10:42:13;8.30;;;1.15;;
60016;SDS011;45869;52.698;6.210;2022-10-01T10:44:43;4.18;;;0.98;;
60016;SDS011;45869;52.698;6.210;2022-10-01T10:47:11;7.20;;;1.00;;
60016;SDS011;45869;52.698;6.210;2022-10-01T10:49:57;7.03;;;1.27;;
60016;SDS011;45869;52.698;6.210;2022-10-01T10:52:31;5.82;;;1.20;;
60016;SDS011;45869;52.698;6.210;2022-10-01T10:55:00;9.07;;;1.60;;
60016;SDS011;45869;52.698;6.210;2022-10-01T10:57:32;12.07;;;2.13;;
60016;SDS011;45869;52.698;6.210;2022-10-01T11:00:10;11.07;;;1.35;;
60016;SDS011;45869;52.698;6.210;2022-10-01T11:02:38;8.02;;;1.50;;
60016;SDS011;45869;52.698;6.210;2022-10-01T11:05:11;7.68;;;1.50;;
60016;SDS011;45869;52.698;6.210;2022-10-01T11:07:42;7.75;;;1.25;;
60016;SDS011;45869;52.698;6.210;2022-10-01T11:28:26;6.78;;;1.23;;
60016;SDS011;45869;52.698;6.210;2022-10-01T11:30:57;5.95;;;0.95;;
60016;SDS011;45869;52.698;6.210;2022-10-01T11:36:16;4.93;;;0.75;;
60016;SDS011;45869;52.698;6.210;2022-10-01T11:38:46;6.50;;;0.93;;
60016;SDS011;45869;52.698;6.210;2022-10-01T11:47:30;6.78;;;0.80;;
60016;SDS011;45869;52.698;6.210;2022-10-01T11:49:51;7.20;;;1.13;;
60016;SDS011;45869;52.698;6.210;2022-10-01T11:52:25;5.50;;;1.10;;
60016;SDS011;45869;52.698;6.210;2022-10-01T11:57:22;9.50;;;1.30;;
60016;SDS011;45869;52.698;6.210;2022-10-01T12:00:08;6.55;;;1.17;;
60016;SDS011;45869;52.698;6.210;2022-10-01T12:02:52;8.70;;;1.42;;
60016;SDS011;45869;52.698;6.210;2022-10-01T12:05:19;7.35;;;1.33;;
60016;SDS011;45869;52.698;6.210;2022-10-01T12:07:48;5.82;;;1.10;;
60016;SDS011;45869;52.698;6.210;2022-10-01T12:13:03;9.05;;;1.63;;
60016;SDS011;45869;52.698;6.210;2022-10-01T12:15:41;6.43;;;1.20;;
60016;SDS011;45869;52.698;6.210;2022-10-01T12:21:18;7.63;;;1.30;;
60016;SDS011;45869;52.698;6.210;2022-10-01T12:23:48;8.52;;;1.40;;
60016;SDS011;45869;52.698;6.210;2022-10-01T12:29:09;8.88;;;1.50;;
60016;SDS011;45869;52.698;6.210;2022-10-01T12:31:51;10.55;;;1.83;;
60016;SDS011;45869;52.698;6.210;2022-10-01T12:40:17;11.80;;;1.77;;
60016;SDS011;45869;52.698;6.210;2022-10-01T12:56:00;10.23;;;1.55;;
60016;SDS011;45869;52.698;6.210;2022-10-01T13:08:52;12.05;;;1.40;;
60016;SDS011;45869;52.698;6.210;2022-10-01T13:11:28;9.50;;;1.80;;
60016;SDS011;45869;52.698;6.210;2022-10-01T13:13:57;11.07;;;1.75;;
60016;SDS011;45869;52.698;6.210;2022-10-01T13:16:58;11.82;;;2.08;;
60016;SDS011;45869;52.698;6.210;2022-10-01T13:30:04;7.68;;;1.52;;
60016;SDS011;45869;52.698;6.210;2022-10-01T13:35:27;9.52;;;1.80;;
60016;SDS011;45869;52.698;6.210;2022-10-01T13:37:54;8.35;;;1.60;;
60016;SDS011;45869;52.698;6.210;2022-10-01T13:42:49;11.93;;;1.80;;
60016;SDS011;45869;52.698;6.210;2022-10-01T13:45:30;12.48;;;1.88;;
60016;SDS011;45869;52.698;6.210;2022-10-01T13:50:30;7.70;;;1.20;;
60016;SDS011;45869;52.698;6.210;2022-10-01T13:53:07;7.38;;;1.52;;
60016;SDS011;45869;52.698;6.210;2022-10-01T13:55:39;9.10;;;1.73;;
60016;SDS011;45869;52.698;6.210;2022-10-01T13:58:18;9.60;;;1.77;;
60016;SDS011;45869;52.698;6.210;2022-10-01T14:00:46;10.40;;;1.83;;
60016;SDS011;45869;52.698;6.210;2022-10-01T14:03:25;10.43;;;1.90;;
60016;SDS011;45869;52.698;6.210;2022-10-01T14:05:56;11.52;;;1.95;;
60016;SDS011;45869;52.698;6.210;2022-10-01T14:11:02;10.02;;;2.22;;
60016;SDS011;45869;52.698;6.210;2022-10-01T14:13:48;12.63;;;1.70;;
60016;SDS011;45869;52.698;6.210;2022-10-01T14:16:35;11.45;;;1.92;;
60016;SDS011;45869;52.698;6.210;2022-10-01T14:19:02;9.23;;;1.70;;
60016;SDS011;45869;52.698;6.210;2022-10-01T14:24:00;12.55;;;2.20;;
60016;SDS011;45869;52.698;6.210;2022-10-01T14:29:51;11.15;;;1.90;;
60016;SDS011;45869;52.698;6.210;2022-10-01T14:37:25;12.40;;;1.73;;
60016;SDS011;45869;52.698;6.210;2022-10-01T14:42:39;10.70;;;1.58;;
60016;SDS011;45869;52.698;6.210;2022-10-01T14:45:12;13.70;;;2.08;;
60016;SDS011;45869;52.698;6.210;2022-10-01T14:47:39;12.27;;;2.05;;
60016;SDS011;45869;52.698;6.210;2022-10-01T14:50:09;7.97;;;1.50;;
60016;SDS011;45869;52.698;6.210;2022-10-01T14:52:35;11.77;;;2.03;;
60016;SDS011;45869;52.698;6.210;2022-10-01T14:55:07;10.68;;;1.77;;
60016;SDS011;45869;52.698;6.210;2022-10-01T14:57:47;8.15;;;1.55;;
60016;SDS011;45869;52.698;6.210;2022-10-01T15:02:47;10.00;;;2.10;;
60016;SDS011;45869;52.698;6.210;2022-10-01T15:05:18;10.50;;;1.83;;
60016;SDS011;45869;52.698;6.210;2022-10-01T15:07:44;12.70;;;1.48;;
60016;SDS011;45869;52.698;6.210;2022-10-01T15:10:11;8.40;;;1.60;;
60016;SDS011;45869;52.698;6.210;2022-10-01T15:12:40;12.23;;;1.88;;
60016;SDS011;45869;52.698;6.210;2022-10-01T15:15:16;10.82;;;1.67;;
60016;SDS011;45869;52.698;6.210;2022-10-01T15:17:46;9.23;;;1.60;;
60016;SDS011;45869;52.698;6.210;2022-10-01T15:20:15;9.50;;;1.70;;
60016;SDS011;45869;52.698;6.210;2022-10-01T15:22:41;7.55;;;1.50;;
60016;SDS011;45869;52.698;6.210;2022-10-01T15:25:10;10.25;;;1.65;;
60016;SDS011;45869;52.698;6.210;2022-10-01T15:27:41;7.40;;;1.50;;
60016;SDS011;45869;52.698;6.210;2022-10-01T15:30:10;8.30;;;1.45;;
60016;SDS011;45869;52.698;6.210;2022-10-01T15:32:38;8.75;;;1.67;;
60016;SDS011;45869;52.698;6.210;2022-10-01T15:35:05;7.57;;;1.58;;
60016;SDS011;45869;52.698;6.210;2022-10-01T15:37:35;9.25;;;1.30;;
60016;SDS011;45869;52.698;6.210;2022-10-01T15:40:03;10.63;;;1.73;;
60016;SDS011;45869;52.698;6.210;2022-10-01T15:42:35;14.45;;;1.88;;
60016;SDS011;45869;52.698;6.210;2022-10-01T15:47:38;9.77;;;1.85;;
60016;SDS011;45869;52.698;6.210;2022-10-01T15:50:09;11.95;;;1.77;;
60016;SDS011;45869;52.698;6.210;2022-10-01T15:55:31;13.40;;;1.92;;
60016;SDS011;45869;52.698;6.210;2022-10-01T15:58:03;10.50;;;1.92;;
60016;SDS011;45869;52.698;6.210;2022-10-01T16:00:30;11.90;;;1.90;;
60016;SDS011;45869;52.698;6.210;2022-10-01T16:03:01;11.10;;;1.98;;
60016;SDS011;45869;52.698;6.210;2022-10-01T16:05:30;9.00;;;1.50;;
60016;SDS011;45869;52.698;6.210;2022-10-01T16:07:57;10.07;;;2.20;;
60016;SDS011;45869;52.698;6.210;2022-10-01T16:10:34;11.73;;;2.08;;
60016;SDS011;45869;52.698;6.210;2022-10-01T16:15:58;10.68;;;2.17;;
60016;SDS011;45869;52.698;6.210;2022-10-01T16:18:30;8.82;;;2.00;;
60016;SDS011;45869;52.698;6.210;2022-10-01T16:21:01;9.75;;;2.05;;
60016;SDS011;45869;52.698;6.210;2022-10-01T16:25:58;13.43;;;2.30;;
60016;SDS011;45869;52.698;6.210;2022-10-01T16:28:25;13.90;;;2.85;;
60016;SDS011;45869;52.698;6.210;2022-10-01T16:30:52;12.43;;;2.35;;
60016;SDS011;45869;52.698;6.210;2022-10-01T16:33:19;12.27;;;2.38;;
60016;SDS011;45869;52.698;6.210;2022-10-01T16:35:48;10.45;;;2.00;;
60016;SDS011;45869;52.698;6.210;2022-10-01T16:38:14;12.02;;;1.92;;
60016;SDS011;45869;52.698;6.210;2022-10-01T16:40:43;9.38;;;2.00;;
60016;SDS011;45869;52.698;6.210;2022-10-01T16:43:15;8.48;;;1.75;;
60016;SDS011;45869;52.698;6.210;2022-10-01T16:45:42;8.13;;;1.65;;
60016;SDS011;45869;52.698;6.210;2022-10-01T16:48:10;9.85;;;2.17;;
60016;SDS011;45869;52.698;6.210;2022-10-01T16:50:38;10.05;;;1.95;;
60016;SDS011;45869;52.698;6.210;2022-10-01T16:53:09;13.60;;;2.45;;
60016;SDS011;45869;52.698;6.210;2022-10-01T16:55:36;11.88;;;2.20;;
60016;SDS011;45869;52.698;6.210;2022-10-01T16:58:03;13.15;;;2.28;;
60016;SDS011;45869;52.698;6.210;2022-10-01T17:00:29;9.30;;;2.17;;
60016;SDS011;45869;52.698;6.210;2022-10-01T17:02:56;11.48;;;2.13;;
60016;SDS011;45869;52.698;6.210;2022-10-01T17:05:25;10.02;;;2.40;;
60016;SDS011;45869;52.698;6.210;2022-10-01T17:07:51;9.20;;;2.10;;
60016;SDS011;45869;52.698;6.210;2022-10-01T17:10:18;10.02;;;2.03;;
60016;SDS011;45869;52.698;6.210;2022-10-01T17:12:44;13.30;;;2.40;;
60016;SDS011;45869;52.698;6.210;2022-10-01T17:15:15;13.30;;;2.33;;
60016;SDS011;45869;52.698;6.210;2022-10-01T17:17:41;10.30;;;2.28;;
60016;SDS011;45869;52.698;6.210;2022-10-01T17:20:08;8.05;;;1.80;;
60016;SDS011;45869;52.698;6.210;2022-10-01T17:22:34;10.48;;;2.40;;
60016;SDS011;45869;52.698;6.210;2022-10-01T17:25:01;8.70;;;1.98;;
60016;SDS011;45869;52.698;6.210;2022-10-01T17:27:27;11.43;;;2.08;;
60016;SDS011;45869;52.698;6.210;2022-10-01T17:29:53;11.45;;;1.90;;